Winchester, MA (01890)

12:47 PM EDT on August 31, 2015 (GMT -0400)
Cross Street | | Change Station
CLOSE
Current Station
Personal Weather Station
Location: Winchester, MA
Elevation: 36 ft
Nearby Weather Stations

Elev 36 ft 42.47 °N, 71.13 °W | Updated 2 minutes ago

Partly Cloudy
Partly Cloudy
93.2 °F
Feels Like 95 °F
N
3.7
Wind Variable Wind from SW
Gusts 6.0 mph

Today
High -- | Low -- °F
--% Chance of Precip.
Yesterday
High -- | Low -- °F
Precip. -- in
6:08 AM 7:20 PM
Waning Gibbous, 94% visible
Pressure 29.97 in
Visibility 10.0 miles
Clouds Few 3000 ft
Scattered Clouds 25000 ft
Heat Index 95 °F
Dew Point 65 °F
Humidity 39%
Rainfall in
Snow Depth Not available.
UV 7 out of 12
Pollen 10.80 out of 12
Air Quality Not available.
Flu Activity Not available.
METAR KBED 311556Z 28011KT 10SM FEW030 SCT250 29/16 A2994 RMK AO2 SLP149 T02940161
Pressure 29.97 in
Visibility 10.0 miles
Clouds Few 3000 ft
Scattered Clouds 25000 ft
Heat Index 95 °F
Dew Point 65 °F
Humidity 39%
Rainfall in
Snow Depth Not available.
UV 7 out of 12
Pollen 10.80 out of 12
Air Quality Not available.
Flu Activity Not available.
METAR KBED 311556Z 28011KT 10SM FEW030 SCT250 29/16 A2994 RMK AO2 SLP149 T02940161

10-Day Weather Forecast

×

Almanac

Astronomy

Aug. 31, 2015 Rise Set
Actual Time
Civil Twilight
Nautical Twilight
Astronomical Twilight
Moon
Length of Visible Light
Length of Day
Tomorrow will be .
, % of the Moon is Illuminated

Today's Extremes

State Highs State Lows

Community

WunderPhotos

Upload Photos

1,851,307 photos uploaded!

WunderBlogs® & News

Nearby

Air Quality

  Air Quality AQ Index Pollutant
Not available.

Snow Depth

Station Depth Elevation

Earthquake Activity

City Distance Mag. Time & Date
Minimum magnitude displayed is 2.5.

Coastal Water Temperatures

Place Temperature

Stations

Nearby Weather Stations

Station Location Temp. Windchill Dew Point Humidity Wind Precip. Elev Updated Type